KBNA

Nashville International Airport

Nashville, Tennessee, USA
KBNA 261254Z 2613/2712 03003KT 5SM -SHRA BR BKN060 OVC080 FM261500 08006KT 4SM -RA BR BKN025 OVC060 FM261900 06007KT 4SM -RA BR OVC015 FM270100 36005KT P6SM OVC100
Issued Valid From Valid To
Apr-26 @ 12:54 UTC
(32 minutes ago)
Apr-26 @ 13:00 UTC
(26 minutes ago)
Apr-27 @ 12:00 UTC
(in 23 hours)
Apr-26 @ 13:00 to Apr-26 @ 15:00
KBNA 261254Z 2613/2712 03003KT 5SM -SHRA BR BKN060 OVC080
Wind Visibility Clouds Conditions
30° at 3 knots 5 miles
  • Broken at 6,000' AGL
  • Overcast at 8,000' AGL
  • Light Rain
  • Mist
From Apr-26 @ 15:00 to Apr-26 @ 19:00
FM261500 08006KT 4SM -RA BR BKN025 OVC060
Wind Visibility Clouds Conditions
80° at 6 knots 4 miles
  • Broken at 2,500' AGL
  • Overcast at 6,000' AGL
  • Light Rain
  • Mist
From Apr-26 @ 19:00 to Apr-27 @ 01:00
FM261900 06007KT 4SM -RA BR OVC015
Wind Visibility Clouds Conditions
60° at 7 knots 4 miles
  • Overcast at 1,500' AGL
  • Light Rain
  • Mist
From Apr-27 @ 01:00 to Apr-27 @ 12:00
FM270100 36005KT P6SM OVC100
Wind Visibility Clouds
360° at 5 knots Greater than 6 miles
  • Overcast at 10,000' AGL
KBNA 261254Z 2613/2712 03003KT 5SM -SHRA BR BKN060 OVC080 FM261500 08006KT 4SM -RA BR BKN025 OVC060 FM261900 06007KT 4SM -RA BR OVC015 FM270100 36005KT P6SM OVC100
Issued Apr-26 @ 12:54 UTC
(32 minutes ago)
Valid From Apr-26 @ 13:00 UTC
(26 minutes ago)
Valid To Apr-27 @ 12:00 UTC
(in 23 hours)
Apr-26 @ 13:00 - Apr-26 @ 15:00
Wind Visibility
30° at 3 knots 5 miles
Clouds
  • Broken at 6,000' AGL
  • Overcast at 8,000' AGL
Conditions
  • Light Rain
  • Mist
From Apr-26 @ 15:00 - Apr-26 @ 19:00
Wind Visibility
80° at 6 knots 4 miles
Clouds
  • Broken at 2,500' AGL
  • Overcast at 6,000' AGL
Conditions
  • Light Rain
  • Mist
From Apr-26 @ 19:00 - Apr-27 @ 01:00
Wind Visibility
60° at 7 knots 4 miles
Clouds
  • Overcast at 1,500' AGL
Conditions
  • Light Rain
  • Mist
From Apr-27 @ 01:00 - Apr-27 @ 12:00
Wind Visibility
360° at 5 knots Greater than 6 miles
Clouds
  • Overcast at 10,000' AGL